createdAt,value
2018-06-05T00:00:59.820Z,851.98
2018-06-05T00:01:59.692Z,851.98
2018-06-05T00:02:59.570Z,851.98
2018-06-05T00:03:59.445Z,851.95
2018-06-05T00:04:59.325Z,851.93
2018-06-05T00:05:59.205Z,851.98
2018-06-05T00:06:59.072Z,851.95
2018-06-05T00:07:58.952Z,852.00
2018-06-05T00:08:58.828Z,851.94
2018-06-05T00:09:58.703Z,851.96
2018-06-05T00:10:58.579Z,851.95
2018-06-05T00:11:58.454Z,851.92
2018-06-05T00:12:58.332Z,851.95
2018-06-05T00:13:58.205Z,851.94
2018-06-05T00:14:58.087Z,851.95
2018-06-05T00:15:57.960Z,851.95
2018-06-05T00:16:57.834Z,851.95
2018-06-05T00:17:57.711Z,851.94
2018-06-05T00:18:57.587Z,851.96
2018-06-05T00:19:57.461Z,851.94
2018-06-05T00:20:57.340Z,851.93
2018-06-05T00:21:57.215Z,851.93
2018-06-05T00:22:57.089Z,851.94
2018-06-05T00:23:56.967Z,851.93
2018-06-05T00:24:56.843Z,851.96
2018-06-05T00:25:56.720Z,851.95
2018-06-05T00:26:56.634Z,851.97
2018-06-05T00:27:56.474Z,851.96
2018-06-05T00:28:56.347Z,851.98
2018-06-05T00:29:56.240Z,852.00
2018-06-05T00:30:56.097Z,851.98
2018-06-05T00:31:55.974Z,851.98
2018-06-05T00:32:55.853Z,852.02
2018-06-05T00:33:55.726Z,851.99
2018-06-05T00:34:55.603Z,851.99
2018-06-05T00:35:55.478Z,852.01
2018-06-05T00:36:55.354Z,852.04
2018-06-05T00:37:55.230Z,852.04
2018-06-05T00:38:55.107Z,852.03
2018-06-05T00:39:54.982Z,852.04
2018-06-05T00:40:54.857Z,852.02
2018-06-05T00:41:54.733Z,852.04
2018-06-05T00:42:54.608Z,852.01
2018-06-05T00:43:54.483Z,852.02
2018-06-05T00:44:54.360Z,852.00
2018-06-05T00:45:54.237Z,852.02
2018-06-05T00:46:54.109Z,852.03
2018-06-05T00:47:53.988Z,852.01
2018-06-05T00:48:53.874Z,851.99
2018-06-05T00:49:53.736Z,851.98
2018-06-05T00:50:53.614Z,851.98
2018-06-05T00:51:53.489Z,852.02
2018-06-05T00:52:53.367Z,852.02
2018-06-05T00:53:53.240Z,852.05
2018-06-05T00:54:53.116Z,852.07
2018-06-05T00:55:52.993Z,852.04
2018-06-05T00:56:52.896Z,852.05
2018-06-05T00:57:52.742Z,852.02
2018-06-05T00:58:52.620Z,852.03
2018-06-05T00:59:52.500Z,852.08
2018-06-05T01:00:52.372Z,852.08
2018-06-05T01:01:52.245Z,852.09
2018-06-05T01:02:52.127Z,852.07
2018-06-05T01:03:51.998Z,852.08
2018-06-05T01:04:51.873Z,852.10
2018-06-05T01:05:51.748Z,852.11
2018-06-05T01:06:51.627Z,852.10
2018-06-05T01:07:51.504Z,852.13
2018-06-05T01:08:51.376Z,852.15
2018-06-05T01:09:51.252Z,852.16
2018-06-05T01:10:51.126Z,852.14
2018-06-05T01:11:51.005Z,852.14
2018-06-05T01:12:50.879Z,852.14
2018-06-05T01:13:50.757Z,852.12
2018-06-05T01:14:50.635Z,852.12
2018-06-05T01:15:50.512Z,852.10
2018-06-05T01:16:50.388Z,852.14
2018-06-05T01:17:50.260Z,852.15
2018-06-05T01:18:50.140Z,852.13
2018-06-05T01:19:50.010Z,852.11
2018-06-05T01:20:49.892Z,852.15
2018-06-05T01:21:49.766Z,852.13
2018-06-05T01:22:49.640Z,852.16
2018-06-05T01:23:49.513Z,852.16
2018-06-05T01:24:49.390Z,852.13
2018-06-05T01:25:49.265Z,852.19
2018-06-05T01:26:49.143Z,852.15
2018-06-05T01:27:49.017Z,852.19
2018-06-05T01:28:48.891Z,852.20
2018-06-05T01:29:48.768Z,852.17
2018-06-05T01:30:48.642Z,852.15
2018-06-05T01:31:48.529Z,852.17
2018-06-05T01:32:48.393Z,852.14
2018-06-05T01:33:48.271Z,852.15
2018-06-05T01:34:48.147Z,852.17
2018-06-05T01:35:48.022Z,852.16
2018-06-05T01:36:47.902Z,852.16
2018-06-05T01:37:47.772Z,852.17
2018-06-05T01:38:47.650Z,852.14
2018-06-05T01:39:47.532Z,852.15
2018-06-05T01:40:47.402Z,852.18
2018-06-05T01:41:47.278Z,852.19
2018-06-05T01:42:47.151Z,852.17
2018-06-05T01:43:47.028Z,852.17
2018-06-05T01:44:46.903Z,852.16
2018-06-05T01:45:46.779Z,852.19
2018-06-05T01:46:46.654Z,852.21
2018-06-05T01:47:46.528Z,852.19
2018-06-05T01:48:46.403Z,852.18
2018-06-05T01:49:46.281Z,852.17
2018-06-05T01:50:46.156Z,852.15
2018-06-05T01:51:46.029Z,852.13
2018-06-05T01:52:45.911Z,852.13
2018-06-05T01:53:45.784Z,852.17
2018-06-05T01:54:45.658Z,852.17
2018-06-05T01:55:45.535Z,852.21
2018-06-05T01:56:45.412Z,852.23
2018-06-05T01:57:45.285Z,852.22
2018-06-05T01:58:45.157Z,852.21
2018-06-05T01:59:45.037Z,852.17
2018-06-05T02:00:44.910Z,852.14
2018-06-05T02:01:44.786Z,852.14
2018-06-05T02:02:44.660Z,852.12
2018-06-05T02:03:44.535Z,852.14
2018-06-05T02:04:44.413Z,852.13
2018-06-05T02:05:44.290Z,852.13
2018-06-05T02:06:44.162Z,852.12
2018-06-05T02:07:44.041Z,852.15
2018-06-05T02:08:43.914Z,852.13
2018-06-05T02:09:43.787Z,852.12
2018-06-05T02:10:43.664Z,852.13
2018-06-05T02:11:43.542Z,852.11
2018-06-05T02:12:43.414Z,852.13
2018-06-05T02:13:43.290Z,852.09
2018-06-05T02:14:43.168Z,852.09
2018-06-05T02:15:43.039Z,852.04
2018-06-05T02:16:42.919Z,852.09
2018-06-05T02:17:42.792Z,852.11
2018-06-05T02:18:42.668Z,852.10
2018-06-05T02:19:42.543Z,852.07
2018-06-05T02:20:42.419Z,852.04
2018-06-05T02:21:42.294Z,852.01
2018-06-05T02:22:42.167Z,852.05
2018-06-05T02:23:42.045Z,852.03
2018-06-05T02:24:41.919Z,852.02
2018-06-05T02:25:41.795Z,852.02
2018-06-05T02:26:41.671Z,852.00
2018-06-05T02:27:41.548Z,852.06
2018-06-05T02:28:41.422Z,852.03
2018-06-05T02:29:41.297Z,852.01
2018-06-05T02:30:41.171Z,852.03
2018-06-05T02:31:41.050Z,852.04
2018-06-05T02:32:40.928Z,852.01
2018-06-05T02:33:40.799Z,852.03
2018-06-05T02:34:40.676Z,852.00
2018-06-05T02:35:40.553Z,851.99
2018-06-05T02:36:40.424Z,851.99
2018-06-05T02:37:40.301Z,852.00
2018-06-05T02:38:40.177Z,851.99
2018-06-05T02:39:40.055Z,852.01
2018-06-05T02:40:39.930Z,852.02
2018-06-05T02:41:39.801Z,852.00
2018-06-05T02:42:39.677Z,852.03
2018-06-05T02:43:39.552Z,852.01
2018-06-05T02:44:39.429Z,852.00
2018-06-05T02:45:39.305Z,851.98
2018-06-05T02:46:39.181Z,851.96
2018-06-05T02:47:39.055Z,851.93
2018-06-05T02:48:38.932Z,851.94
2018-06-05T02:49:38.806Z,851.91
2018-06-05T02:50:38.686Z,851.89
2018-06-05T02:51:38.557Z,851.92
2018-06-05T02:52:38.432Z,851.92
2018-06-05T02:53:38.307Z,851.91
2018-06-05T02:54:38.182Z,851.88
2018-06-05T02:55:38.059Z,851.90
2018-06-05T02:56:37.933Z,851.86
2018-06-05T02:57:37.807Z,851.89
2018-06-05T02:58:37.683Z,851.90
2018-06-05T02:59:37.560Z,851.90
2018-06-05T03:00:37.437Z,851.90
2018-06-05T03:01:37.312Z,851.90
2018-06-05T03:02:37.187Z,851.89
2018-06-05T03:03:37.064Z,851.89
2018-06-05T03:04:36.939Z,851.91
2018-06-05T03:05:36.810Z,851.89
2018-06-05T03:06:36.689Z,851.87
2018-06-05T03:07:36.562Z,851.90
2018-06-05T03:08:36.440Z,851.90
2018-06-05T03:09:36.315Z,851.89
2018-06-05T03:10:36.190Z,851.88
2018-06-05T03:11:36.071Z,851.90
2018-06-05T03:12:35.942Z,851.89
2018-06-05T03:13:35.818Z,851.93
2018-06-05T03:14:35.695Z,851.90
2018-06-05T03:15:35.569Z,851.91
2018-06-05T03:16:35.443Z,851.91
2018-06-05T03:17:35.317Z,851.92
2018-06-05T03:18:35.193Z,851.93
2018-06-05T03:19:35.067Z,851.94
2018-06-05T03:20:34.943Z,851.92
2018-06-05T03:21:34.817Z,851.94
2018-06-05T03:22:34.694Z,851.92
2018-06-05T03:23:34.570Z,851.92
2018-06-05T03:24:34.444Z,851.93
2018-06-05T03:25:34.320Z,851.96
2018-06-05T03:26:34.197Z,851.99
2018-06-05T03:27:34.073Z,851.98
2018-06-05T03:28:33.948Z,851.97
2018-06-05T03:29:33.820Z,851.94
2018-06-05T03:30:33.697Z,851.94
2018-06-05T03:31:33.574Z,851.91
2018-06-05T03:32:33.447Z,851.96
2018-06-05T03:33:33.326Z,851.98
2018-06-05T03:34:33.197Z,851.94
2018-06-05T03:35:33.074Z,851.91
2018-06-05T03:36:32.952Z,851.92
2018-06-05T03:37:32.827Z,851.96
2018-06-05T03:38:32.699Z,851.96
2018-06-05T03:39:32.573Z,851.95
2018-06-05T03:40:32.448Z,851.99
2018-06-05T03:41:32.323Z,851.96
2018-06-05T03:42:32.200Z,851.93
2018-06-05T03:43:32.084Z,851.92
2018-06-05T03:44:31.950Z,851.96
2018-06-05T03:45:31.825Z,851.97
2018-06-05T03:46:31.702Z,851.92
2018-06-05T03:47:31.576Z,851.92
2018-06-05T03:48:31.494Z,851.96
2018-06-05T03:49:31.326Z,851.95
2018-06-05T03:50:31.205Z,851.95
2018-06-05T03:51:31.080Z,851.94
2018-06-05T03:52:30.957Z,851.95
2018-06-05T03:53:30.828Z,851.96
2018-06-05T03:54:30.706Z,851.99
2018-06-05T03:55:30.579Z,851.98
2018-06-05T03:56:30.468Z,851.98
2018-06-05T03:57:30.332Z,852.00
2018-06-05T03:58:30.207Z,852.03
2018-06-05T03:59:30.090Z,852.02
2018-06-05T04:00:29.956Z,852.05
2018-06-05T04:01:29.833Z,852.02
2018-06-05T04:02:29.707Z,852.01
2018-06-05T04:03:29.583Z,852.00
2018-06-05T04:04:29.462Z,852.04
2018-06-05T04:05:29.337Z,852.07
2018-06-05T04:06:29.214Z,852.01
2018-06-05T04:07:29.089Z,852.02
2018-06-05T04:08:28.967Z,852.05
2018-06-05T04:09:28.837Z,852.03
2018-06-05T04:10:28.715Z,852.03
2018-06-05T04:11:28.590Z,852.04
2018-06-05T04:12:28.467Z,852.04
2018-06-05T04:13:28.342Z,852.05
2018-06-05T04:14:28.216Z,852.03
2018-06-05T04:15:28.090Z,852.01
2018-06-05T04:16:27.970Z,852.02
2018-06-05T04:17:27.840Z,852.00
2018-06-05T04:18:27.727Z,852.02
2018-06-05T04:19:27.591Z,852.00
2018-06-05T04:20:27.465Z,852.04
2018-06-05T04:21:27.343Z,852.00
2018-06-05T04:22:27.216Z,852.01
2018-06-05T04:23:27.097Z,851.99
2018-06-05T04:24:26.968Z,851.99
2018-06-05T04:25:26.846Z,851.95
2018-06-05T04:26:26.723Z,851.99
2018-06-05T04:27:26.594Z,851.93
2018-06-05T04:28:26.471Z,851.92
2018-06-05T04:29:26.345Z,851.94
2018-06-05T04:30:26.221Z,851.94
2018-06-05T04:31:26.096Z,851.95
2018-06-05T04:32:25.972Z,851.93
2018-06-05T04:33:25.847Z,851.95
2018-06-05T04:34:25.725Z,851.95
2018-06-05T04:35:25.600Z,851.96
2018-06-05T04:36:25.477Z,851.98
2018-06-05T04:37:25.447Z,851.93
2018-06-05T04:38:25.222Z,851.95
2018-06-05T04:39:25.111Z,851.97
2018-06-05T04:40:24.977Z,851.97
2018-06-05T04:41:24.850Z,851.96
2018-06-05T04:42:24.728Z,851.97
2018-06-05T04:43:24.604Z,851.93
2018-06-05T04:44:24.481Z,852.00
2018-06-05T04:45:24.354Z,852.00
2018-06-05T04:46:24.239Z,851.97
2018-06-05T04:47:24.105Z,851.97
2018-06-05T04:48:23.984Z,851.96
2018-06-05T04:49:23.862Z,851.95
2018-06-05T04:50:23.734Z,851.97
2018-06-05T04:51:23.613Z,851.95
2018-06-05T04:52:23.488Z,851.96
2018-06-05T04:53:23.363Z,851.93
2018-06-05T04:54:23.242Z,851.96
2018-06-05T04:55:23.120Z,851.97
2018-06-05T04:56:23.001Z,851.98
2018-06-05T04:57:22.871Z,851.95
2018-06-05T04:58:22.746Z,851.97
2018-06-05T04:59:22.625Z,851.98
2018-06-05T05:00:22.502Z,852.07
2018-06-05T05:01:22.377Z,852.04
2018-06-05T05:02:22.255Z,852.04
2018-06-05T05:03:22.154Z,852.06
2018-06-05T05:04:22.005Z,852.07
2018-06-05T05:05:21.882Z,852.10
2018-06-05T05:06:21.765Z,852.14
2018-06-05T05:07:21.643Z,852.10
2018-06-05T05:08:21.513Z,852.10
2018-06-05T05:09:21.391Z,852.12
2018-06-05T05:10:21.272Z,852.13
2018-06-05T05:11:21.144Z,852.16
2018-06-05T05:12:21.024Z,852.15
2018-06-05T05:13:20.898Z,852.19
2018-06-05T05:14:20.780Z,852.21
2018-06-05T05:15:20.655Z,852.22
2018-06-05T05:16:20.584Z,852.24
2018-06-05T05:17:20.407Z,852.28
2018-06-05T05:18:20.284Z,852.26
2018-06-05T05:19:20.162Z,852.25
2018-06-05T05:20:20.037Z,852.30
2018-06-05T05:21:19.914Z,852.29
2018-06-05T05:22:19.794Z,852.27
2018-06-05T05:23:19.687Z,852.33
2018-06-05T05:24:19.546Z,852.31
2018-06-05T05:25:19.423Z,852.29
2018-06-05T05:26:19.302Z,852.30
2018-06-05T05:27:19.178Z,852.29
2018-06-05T05:28:19.057Z,852.31
2018-06-05T05:29:18.935Z,852.29
2018-06-05T05:30:18.811Z,852.28
2018-06-05T05:31:18.689Z,852.30
2018-06-05T05:32:18.566Z,852.27
2018-06-05T05:33:18.443Z,852.25
2018-06-05T05:34:18.323Z,852.25
2018-06-05T05:35:18.199Z,852.27
2018-06-05T05:36:18.075Z,852.29
2018-06-05T05:37:17.956Z,852.26
2018-06-05T05:38:17.827Z,852.28
2018-06-05T05:39:17.706Z,852.29
2018-06-05T05:40:17.585Z,852.30
2018-06-05T05:41:17.461Z,852.25
2018-06-05T05:42:17.340Z,852.28
2018-06-05T05:43:17.220Z,852.34
2018-06-05T05:44:17.095Z,852.30
2018-06-05T05:45:16.974Z,852.30
2018-06-05T05:46:16.856Z,852.30
2018-06-05T05:47:16.731Z,852.30
2018-06-05T05:48:16.609Z,852.27
2018-06-05T05:49:16.485Z,852.30
2018-06-05T05:50:16.362Z,852.30
2018-06-05T05:51:16.242Z,852.23
2018-06-05T05:52:16.118Z,852.23
2018-06-05T05:53:15.993Z,852.26
2018-06-05T05:54:15.875Z,852.27
2018-06-05T05:55:15.751Z,852.30
2018-06-05T05:56:15.629Z,852.26
2018-06-05T05:57:15.507Z,852.30
2018-06-05T05:58:15.384Z,852.29
2018-06-05T05:59:15.262Z,852.29
2018-06-05T06:00:15.141Z,852.28
2018-06-05T06:01:15.020Z,852.30
2018-06-05T06:02:14.900Z,852.30
2018-06-05T06:03:14.778Z,852.30
2018-06-05T06:04:14.654Z,852.27
2018-06-05T06:05:14.530Z,852.28
2018-06-05T06:06:14.413Z,852.27
2018-06-05T06:07:14.291Z,852.28
2018-06-05T06:08:14.170Z,852.29
2018-06-05T06:09:14.044Z,852.28
2018-06-05T06:10:13.924Z,852.27
2018-06-05T06:11:13.803Z,852.30
2018-06-05T06:12:13.680Z,852.31
2018-06-05T06:13:13.559Z,852.29
2018-06-05T06:14:13.434Z,852.29
2018-06-05T06:15:13.313Z,852.29
2018-06-05T06:16:13.193Z,852.31
2018-06-05T06:17:13.071Z,852.26
2018-06-05T06:18:12.949Z,852.30
2018-06-05T06:19:12.825Z,852.25
2018-06-05T06:20:12.706Z,852.31
2018-06-05T06:21:12.583Z,852.29
2018-06-05T06:22:12.465Z,852.25
2018-06-05T06:23:12.340Z,852.23
2018-06-05T06:24:12.218Z,852.24
2018-06-05T06:25:12.096Z,852.25
2018-06-05T06:26:11.974Z,852.29
2018-06-05T06:27:11.851Z,852.22
2018-06-05T06:28:11.732Z,852.27
2018-06-05T06:29:11.610Z,852.25
2018-06-05T06:30:11.487Z,852.27
2018-06-05T06:31:11.369Z,852.22
2018-06-05T06:32:11.246Z,852.25
2018-06-05T06:33:11.122Z,852.27
2018-06-05T06:34:11.002Z,852.20
2018-06-05T06:35:10.883Z,852.25
2018-06-05T06:36:10.759Z,852.26
2018-06-05T06:37:10.636Z,852.25
2018-06-05T06:38:10.516Z,852.23
2018-06-05T06:39:10.398Z,852.24
2018-06-05T06:40:10.273Z,852.27
2018-06-05T06:41:10.152Z,852.25
2018-06-05T06:42:10.035Z,852.28
2018-06-05T06:43:09.908Z,852.30
2018-06-05T06:44:09.787Z,852.31
2018-06-05T06:45:09.666Z,852.28
2018-06-05T06:46:09.544Z,852.31
2018-06-05T06:47:09.424Z,852.29
2018-06-05T06:48:09.301Z,852.28
2018-06-05T06:49:09.179Z,852.31
2018-06-05T06:50:09.058Z,852.26
2018-06-05T06:51:08.940Z,852.30
2018-06-05T06:52:08.816Z,852.30
2018-06-05T06:53:08.693Z,852.31
2018-06-05T06:54:08.611Z,852.29
2018-06-05T06:55:08.454Z,852.26
2018-06-05T06:56:08.332Z,852.28
2018-06-05T06:57:08.209Z,852.29
2018-06-05T06:58:08.090Z,852.28
2018-06-05T06:59:07.963Z,852.27
2018-06-05T07:00:07.854Z,852.28
2018-06-05T07:01:07.721Z,852.30
2018-06-05T07:02:07.602Z,852.26
2018-06-05T07:03:07.481Z,852.22
2018-06-05T07:04:07.363Z,852.22
2018-06-05T07:05:07.239Z,852.25
2018-06-05T07:06:07.116Z,852.22
2018-06-05T07:07:06.998Z,852.21
2018-06-05T07:08:06.877Z,852.23
2018-06-05T07:09:06.753Z,852.26
2018-06-05T07:10:06.631Z,852.23
2018-06-05T07:11:06.511Z,852.24
2018-06-05T07:12:06.393Z,852.25
2018-06-05T07:13:06.270Z,852.26
2018-06-05T07:14:06.146Z,852.24
2018-06-05T07:15:06.027Z,852.26
2018-06-05T07:16:05.907Z,852.27
2018-06-05T07:17:05.785Z,852.29
2018-06-05T07:18:05.662Z,852.29
2018-06-05T07:19:05.542Z,852.24
2018-06-05T07:20:05.422Z,852.23
2018-06-05T07:21:05.303Z,852.24
2018-06-05T07:22:05.182Z,852.25
2018-06-05T07:23:05.064Z,852.21
2018-06-05T07:24:04.977Z,852.24
2018-06-05T07:25:04.819Z,852.24
2018-06-05T07:26:04.697Z,852.20
2018-06-05T07:27:04.580Z,852.24
2018-06-05T07:28:04.460Z,852.23
2018-06-05T07:29:04.332Z,852.20
2018-06-05T07:30:04.213Z,852.21
2018-06-05T07:31:04.092Z,852.23
2018-06-05T07:32:03.974Z,852.19
2018-06-05T07:33:03.850Z,852.17
2018-06-05T07:34:03.732Z,852.16
2018-06-05T07:35:03.609Z,852.13
2018-06-05T07:36:03.488Z,852.16
2018-06-05T07:37:03.372Z,852.10
2018-06-05T07:38:03.244Z,852.10
2018-06-05T07:39:03.125Z,852.07
2018-06-05T07:40:03.006Z,852.06
2018-06-05T07:41:02.883Z,852.06
2018-06-05T07:42:02.763Z,852.04
2018-06-05T07:43:02.644Z,852.01
2018-06-05T07:44:02.522Z,852.02
2018-06-05T07:45:02.401Z,851.98
2018-06-05T07:46:02.282Z,851.96
2018-06-05T07:47:02.161Z,851.96
2018-06-05T07:48:02.040Z,851.98
2018-06-05T07:49:01.919Z,851.96
2018-06-05T07:50:01.875Z,851.97
2018-06-05T07:51:01.677Z,851.96
2018-06-05T07:52:01.558Z,851.96
2018-06-05T07:53:01.439Z,851.94
2018-06-05T07:54:01.319Z,851.91
2018-06-05T07:55:01.195Z,851.93
2018-06-05T07:56:01.079Z,851.91
2018-06-05T07:57:00.955Z,851.89
2018-06-05T07:58:00.834Z,851.93
2018-06-05T07:59:00.716Z,851.86
2018-06-05T08:00:00.595Z,851.87
2018-06-05T08:01:00.473Z,851.87
2018-06-05T08:02:00.354Z,851.86
2018-06-05T08:03:00.231Z,851.89
2018-06-05T08:04:00.115Z,851.87
2018-06-05T08:04:59.994Z,851.91
2018-06-05T08:05:59.874Z,851.90
2018-06-05T08:06:59.751Z,851.88
2018-06-05T08:07:59.632Z,851.93
2018-06-05T08:08:59.514Z,851.88
2018-06-05T08:09:59.392Z,851.87
2018-06-05T08:10:59.271Z,851.88
2018-06-05T08:11:59.156Z,851.87
2018-06-05T08:12:59.033Z,851.90
2018-06-05T08:13:58.916Z,851.91
2018-06-05T08:14:58.795Z,851.92
2018-06-05T08:15:58.673Z,851.92
2018-06-05T08:16:58.557Z,851.90
2018-06-05T08:17:58.435Z,851.91
2018-06-05T08:18:58.322Z,851.88
2018-06-05T08:19:58.197Z,851.90
2018-06-05T08:20:58.078Z,851.91
2018-06-05T08:21:57.958Z,851.93
2018-06-05T08:22:57.836Z,851.89
2018-06-05T08:23:57.724Z,851.92
2018-06-05T08:24:57.597Z,851.88
2018-06-05T08:25:57.479Z,851.86
2018-06-05T08:26:57.365Z,851.90
2018-06-05T08:27:57.244Z,851.88
2018-06-05T08:28:57.126Z,851.89
2018-06-05T08:29:57.004Z,851.85
2018-06-05T08:30:56.886Z,851.89
2018-06-05T08:31:56.769Z,851.83
2018-06-05T08:32:56.647Z,851.84
2018-06-05T08:33:56.526Z,851.84
2018-06-05T08:34:56.413Z,851.86
2018-06-05T08:35:56.292Z,851.85
2018-06-05T08:36:56.171Z,851.86
2018-06-05T08:37:56.069Z,851.83
2018-06-05T08:38:55.939Z,851.84
2018-06-05T08:39:55.817Z,851.85
2018-06-05T08:40:55.697Z,851.84
2018-06-05T08:41:55.576Z,851.83
2018-06-05T08:42:55.458Z,851.83
2018-06-05T08:43:55.340Z,851.79
2018-06-05T08:44:55.221Z,851.82
2018-06-05T08:45:55.105Z,851.82
2018-06-05T08:46:54.984Z,851.81
2018-06-05T08:47:54.871Z,851.78
2018-06-05T08:48:54.746Z,851.81
2018-06-05T08:49:54.630Z,851.83
2018-06-05T08:50:54.511Z,851.79
2018-06-05T08:51:54.392Z,851.81
2018-06-05T08:52:54.275Z,851.78
2018-06-05T08:53:54.155Z,851.78
2018-06-05T08:54:54.036Z,851.77
2018-06-05T08:55:53.919Z,851.78
2018-06-05T08:56:53.797Z,851.76
2018-06-05T08:57:53.683Z,851.75
2018-06-05T08:58:53.569Z,851.75
2018-06-05T08:59:53.501Z,851.69
2018-06-05T09:00:53.327Z,851.71
2018-06-05T09:01:53.214Z,851.70
2018-06-05T09:02:53.089Z,851.68
2018-06-05T09:03:52.976Z,851.68
2018-06-05T09:04:52.857Z,851.71
2018-06-05T09:05:52.735Z,851.70
2018-06-05T09:06:52.621Z,851.67
2018-06-05T09:07:52.502Z,851.67
2018-06-05T09:08:52.382Z,851.69
2018-06-05T09:09:52.266Z,851.68
2018-06-05T09:10:52.180Z,851.68
2018-06-05T09:11:52.032Z,851.69
2018-06-05T09:12:51.957Z,851.69
2018-06-05T09:13:51.797Z,851.72
2018-06-05T09:14:51.676Z,851.69
2018-06-05T09:15:51.559Z,851.68
2018-06-05T09:16:51.442Z,851.73
2018-06-05T09:17:51.320Z,851.69
2018-06-05T09:18:51.200Z,851.70
2018-06-05T09:19:51.087Z,851.71
2018-06-05T09:20:50.970Z,851.67
2018-06-05T09:21:50.850Z,851.71
2018-06-05T09:22:50.732Z,851.67
2018-06-05T09:23:50.614Z,851.64
2018-06-05T09:24:50.496Z,851.61
2018-06-05T09:25:50.380Z,851.66
2018-06-05T09:26:50.262Z,851.60
2018-06-05T09:27:50.141Z,851.65
2018-06-05T09:28:50.024Z,851.65
2018-06-05T09:29:49.906Z,851.64
2018-06-05T09:30:49.787Z,851.64
2018-06-05T09:31:49.670Z,851.61
2018-06-05T09:32:49.554Z,851.64
2018-06-05T09:33:49.432Z,851.63
2018-06-05T09:34:49.317Z,851.63
2018-06-05T09:35:49.199Z,851.60
2018-06-05T09:36:51.260Z,851.63
2018-06-05T09:37:48.964Z,851.65
2018-06-05T09:38:48.842Z,851.63
2018-06-05T09:39:48.722Z,851.62
2018-06-05T09:40:48.606Z,851.59
2018-06-05T09:41:48.489Z,851.59
2018-06-05T09:42:48.370Z,851.63
2018-06-05T09:43:48.251Z,851.58
2018-06-05T09:44:48.131Z,851.56
2018-06-05T09:45:48.015Z,851.55
2018-06-05T09:46:48.810Z,851.55
2018-06-05T09:47:47.777Z,851.56
2018-06-05T09:48:47.662Z,851.56
2018-06-05T09:49:47.541Z,851.55
2018-06-05T09:50:47.421Z,851.57
2018-06-05T09:51:47.305Z,851.56
2018-06-05T09:52:47.185Z,851.53
2018-06-05T09:53:47.070Z,851.57
2018-06-05T09:54:46.952Z,851.56
2018-06-05T09:55:46.832Z,851.56
2018-06-05T09:56:46.742Z,851.53
2018-06-05T09:57:46.727Z,851.54
2018-06-05T09:58:46.479Z,851.55
2018-06-05T09:59:46.361Z,851.54
2018-06-05T10:00:46.242Z,851.56
2018-06-05T10:01:46.123Z,851.57
2018-06-05T10:02:46.008Z,851.55
2018-06-05T10:03:45.937Z,851.56
2018-06-05T10:04:45.771Z,851.57
2018-06-05T10:05:45.653Z,851.57
2018-06-05T10:06:45.534Z,851.55
2018-06-05T10:07:45.418Z,851.56
2018-06-05T10:08:45.301Z,851.55
2018-06-05T10:09:45.181Z,851.54
2018-06-05T10:10:45.067Z,851.57
2018-06-05T10:11:44.947Z,851.51
2018-06-05T10:12:44.828Z,851.51
2018-06-05T10:13:44.711Z,851.51
2018-06-05T10:14:44.594Z,851.44
2018-06-05T10:15:44.483Z,851.45
2018-06-05T10:16:44.361Z,851.43
2018-06-05T10:17:44.245Z,851.41
2018-06-05T10:18:44.125Z,851.39
2018-06-05T10:19:44.013Z,851.39
2018-06-05T10:20:43.890Z,851.46
2018-06-05T10:21:43.773Z,851.47
2018-06-05T10:22:43.658Z,851.44
2018-06-05T10:23:43.545Z,851.46
2018-06-05T10:24:43.420Z,851.48
2018-06-05T10:25:43.304Z,851.47
2018-06-05T10:26:43.187Z,851.47
2018-06-05T10:27:43.070Z,851.46
2018-06-05T10:28:42.953Z,851.44
2018-06-05T10:29:42.834Z,851.46
2018-06-05T10:30:42.717Z,851.41
2018-06-05T10:31:42.604Z,851.43
2018-06-05T10:32:42.483Z,851.45
2018-06-05T10:33:42.366Z,851.38
2018-06-05T10:34:42.279Z,851.32
2018-06-05T10:35:42.135Z,851.36
2018-06-05T10:36:42.019Z,851.32
2018-06-05T10:37:41.900Z,851.32
2018-06-05T10:38:41.784Z,851.31
2018-06-05T10:39:41.666Z,851.32
2018-06-05T10:40:41.547Z,851.32
2018-06-05T10:41:41.437Z,851.39
2018-06-05T10:42:41.315Z,851.38
2018-06-05T10:43:41.202Z,851.38
2018-06-05T10:44:41.086Z,851.36
2018-06-05T10:45:40.970Z,851.37
2018-06-05T10:46:40.866Z,851.37
2018-06-05T10:47:40.740Z,851.37
2018-06-05T10:48:40.621Z,851.37
2018-06-05T10:49:40.504Z,851.36
2018-06-05T10:50:40.389Z,851.40
2018-06-05T10:51:40.274Z,851.35
2018-06-05T10:52:40.154Z,851.36
2018-06-05T10:53:40.078Z,851.35
2018-06-05T10:54:39.924Z,851.36
2018-06-05T10:55:39.809Z,851.39
2018-06-05T10:56:39.690Z,851.37
2018-06-05T10:57:39.580Z,851.38
2018-06-05T10:58:39.457Z,851.39
2018-06-05T10:59:39.347Z,851.41
2018-06-05T11:00:39.227Z,851.43
2018-06-05T11:01:39.112Z,851.43
2018-06-05T11:02:38.993Z,851.40
2018-06-05T11:03:38.879Z,851.41
2018-06-05T11:04:38.762Z,851.37
2018-06-05T11:05:38.648Z,851.38
2018-06-05T11:06:38.531Z,851.37
2018-06-05T11:07:38.414Z,851.40
2018-06-05T11:08:38.298Z,851.42
2018-06-05T11:09:38.183Z,851.39
2018-06-05T11:10:40.806Z,851.33
2018-06-05T11:11:37.953Z,851.31
2018-06-05T11:12:37.842Z,851.32
2018-06-05T11:13:37.723Z,851.33
2018-06-05T11:14:37.607Z,851.33
2018-06-05T11:15:37.492Z,851.31
2018-06-05T11:16:37.374Z,851.32
2018-06-05T11:17:37.256Z,851.31
2018-06-05T11:18:37.143Z,851.39
2018-06-05T11:19:37.026Z,851.38
2018-06-05T11:20:36.911Z,851.38
2018-06-05T11:21:36.793Z,851.36
2018-06-05T11:22:36.680Z,851.35
2018-06-05T11:23:36.567Z,851.37
2018-06-05T11:24:36.448Z,851.39
2018-06-05T11:25:36.330Z,851.34
2018-06-05T11:26:36.216Z,851.35
2018-06-05T11:27:36.099Z,851.32
2018-06-05T11:28:35.982Z,851.33
2018-06-05T11:29:35.912Z,851.33
2018-06-05T11:30:35.751Z,851.30
2018-06-05T11:31:35.638Z,851.29
2018-06-05T11:32:35.518Z,851.32
2018-06-05T11:33:35.402Z,851.30
2018-06-05T11:34:35.286Z,851.24
2018-06-05T11:35:35.170Z,851.24
2018-06-05T11:36:35.082Z,851.26
2018-06-05T11:37:34.937Z,851.23
2018-06-05T11:38:34.826Z,851.23
2018-06-05T11:39:34.704Z,851.23
2018-06-05T11:40:34.588Z,851.23
2018-06-05T11:41:34.472Z,851.26
2018-06-05T11:42:34.354Z,851.25
2018-06-05T11:43:34.237Z,851.26
2018-06-05T11:44:34.123Z,851.25
2018-06-05T11:45:34.006Z,851.24
2018-06-05T11:46:33.922Z,851.24
2018-06-05T11:47:33.784Z,851.22
2018-06-05T11:48:33.676Z,851.28
2018-06-05T11:49:33.544Z,851.25
2018-06-05T11:50:33.422Z,851.24
2018-06-05T11:51:33.306Z,851.22
2018-06-05T11:52:33.200Z,851.26
2018-06-05T11:53:33.072Z,851.29
2018-06-05T11:54:32.959Z,851.29
2018-06-05T11:55:32.840Z,851.26
2018-06-05T11:56:32.725Z,851.26
2018-06-05T11:57:32.608Z,851.29
2018-06-05T11:58:32.489Z,851.26
2018-06-05T11:59:32.377Z,851.26
2018-06-05T12:00:32.262Z,851.20
2018-06-05T12:01:32.146Z,851.21
2018-06-05T12:02:32.031Z,851.20
2018-06-05T12:03:31.912Z,851.19
2018-06-05T12:04:31.809Z,851.17
2018-06-05T12:05:33.842Z,851.17
2018-06-05T12:06:31.563Z,851.14
2018-06-05T12:07:31.453Z,851.14
2018-06-05T12:08:31.329Z,851.15
2018-06-05T12:09:31.216Z,851.14
2018-06-05T12:10:31.101Z,851.13
2018-06-05T12:11:30.982Z,851.09
2018-06-05T12:12:30.870Z,851.10
2018-06-05T12:13:30.751Z,851.10
2018-06-05T12:14:30.636Z,851.10
2018-06-05T12:15:30.518Z,851.08
2018-06-05T12:16:30.404Z,851.05
2018-06-05T12:17:30.286Z,851.09
2018-06-05T12:18:30.172Z,851.12
2018-06-05T12:19:30.056Z,851.07
2018-06-05T12:20:29.941Z,851.14
2018-06-05T12:21:29.823Z,851.10
2018-06-05T12:22:29.732Z,851.09
2018-06-05T12:23:29.627Z,851.14
2018-06-05T12:24:29.478Z,851.11
2018-06-05T12:25:29.417Z,851.10
2018-06-05T12:26:29.244Z,851.05
2018-06-05T12:27:29.131Z,851.09